Key West, FL

11:31 AM EDT on August 29, 2016 (GMT -0400)
Big Coppitt Key Gulfside | | Change Station

Elev 31 ft 24.60 °N, 81.67 °W | Updated 12 minutes ago

Overcast
Overcast
85.5 °F
Feels Like 93 °F
N
5.8
Wind Variable Wind from East

Today
High -- | Low -- °F
--% Chance of Precip.
Yesterday
High -- | Low -- °F
Precip. -- in
Pressure 29.89 in
Visibility 10.0 miles
Clouds Scattered Clouds 2500 ft
Scattered Clouds 5000 ft
Overcast 11000 ft
Heat Index 93 °F
Dew Point 74 °F
Humidity 69%
Rainfall 0.57 in
Snow Depth Not available.
7:06 AM 7:47 PM
Waning Crescent, 8% visible
METAR KNQX 291353Z 10014KT 10SM SCT025 SCT050 OVC110 28/24 A2989 RMK AO2 SLP121 T02780239 $
Pressure 29.89 in
Visibility 10.0 miles
Clouds Scattered Clouds 2500 ft
Scattered Clouds 5000 ft
Overcast 11000 ft
Heat Index 93 °F
Dew Point 74 °F
Humidity 69%
Rainfall 0.57 in
Snow Depth Not available.
7:06 AM 7:47 PM
Waning Crescent, 8% visible
METAR KNQX 291353Z 10014KT 10SM SCT025 SCT050 OVC110 28/24 A2989 RMK AO2 SLP121 T02780239 $

10-Day Weather Forecast

Almanac

Astronomy

Aug. 29, 2016 Rise Set
Actual Time
Civil Twilight
Nautical Twilight
Astronomical Twilight
Moon
Length of Visible Light
Length of Day
Tomorrow will be .
, % of the Moon is Illuminated

Today's Extremes

State Highs State Lows

Community

WunderPhotos

Upload Photos

1,935,856 photos uploaded!

WunderBlog® & News

Nearby

Air Quality

  Air Quality AQ Index Pollutant
Not available.

Snow Depth

Station Depth Elevation

Earthquake Activity

City Distance Mag. Time & Date
Minimum magnitude displayed is 2.5.

Coastal Water Temperatures

Place Temperature

Stations

Nearby Weather Stations

Station Location Temp. Windchill Dew Point Humidity Wind Precip. Elev Updated Type
                   

Watches & Warnings

There are currently no watches in effect.